createdAt,value
2018-06-27T00:00:00.715Z,9.37
2018-06-27T00:02:28.920Z,9.27
2018-06-27T00:04:57.378Z,9.23
2018-06-27T00:07:25.816Z,8.87
2018-06-27T00:09:54.315Z,8.33
2018-06-27T00:12:22.826Z,7.90
2018-06-27T00:14:51.276Z,9.13
2018-06-27T00:17:19.776Z,8.10
2018-06-27T00:19:48.264Z,8.97
2018-06-27T00:22:16.733Z,7.83
2018-06-27T00:24:44.858Z,7.90
2018-06-27T00:27:13.304Z,9.17
2018-06-27T00:29:41.752Z,8.63
2018-06-27T00:32:09.915Z,8.60
2018-06-27T00:34:38.334Z,8.27
2018-06-27T00:37:06.811Z,7.30
2018-06-27T00:39:34.938Z,7.93
2018-06-27T00:42:03.371Z,8.80
2018-06-27T00:44:31.502Z,7.97
2018-06-27T00:46:59.910Z,8.43
2018-06-27T00:49:28.332Z,8.60
2018-06-27T00:51:56.760Z,8.87
2018-06-27T00:54:25.157Z,9.67
2018-06-27T00:56:53.568Z,7.87
2018-06-27T00:59:21.981Z,9.57
2018-06-27T01:01:50.374Z,8.00
2018-06-27T01:04:18.824Z,8.93
2018-06-27T01:06:47.241Z,10.90
2018-06-27T01:09:15.678Z,8.70
2018-06-27T01:11:43.768Z,9.30
2018-06-27T01:14:12.180Z,9.47
2018-06-27T01:16:40.584Z,9.23
2018-06-27T01:19:09.012Z,8.50
2018-06-27T01:21:37.476Z,8.97
2018-06-27T01:24:05.621Z,9.67
2018-06-27T01:26:33.730Z,9.03
2018-06-27T01:29:02.158Z,10.37
2018-06-27T01:31:30.258Z,9.43
2018-06-27T01:33:58.708Z,9.93
2018-06-27T01:36:27.120Z,9.10
2018-06-27T01:38:55.504Z,10.40
2018-06-27T01:41:24.478Z,9.10
2018-06-27T01:43:52.602Z,8.83
2018-06-27T01:46:21.043Z,10.43
2018-06-27T01:48:49.447Z,10.00
2018-06-27T01:51:17.804Z,9.33
2018-06-27T01:53:46.221Z,9.77
2018-06-27T01:56:14.331Z,10.23
2018-06-27T01:58:42.726Z,9.07
2018-06-27T02:01:11.149Z,10.47
2018-06-27T02:03:39.252Z,9.20
2018-06-27T02:06:07.681Z,9.50
2018-06-27T02:08:36.071Z,9.87
2018-06-27T02:11:04.182Z,9.27
2018-06-27T02:13:32.593Z,10.10
2018-06-27T02:16:01.039Z,9.90
2018-06-27T02:18:29.469Z,10.87
2018-06-27T02:20:57.915Z,10.00
2018-06-27T02:23:26.041Z,10.63
2018-06-27T02:25:54.435Z,10.70
2018-06-27T02:28:22.869Z,9.30
2018-06-27T02:30:50.955Z,9.43
2018-06-27T02:33:24.807Z,9.20
2018-06-27T02:35:52.901Z,8.23
2018-06-27T02:38:21.328Z,10.57
2018-06-27T02:40:49.753Z,9.20
2018-06-27T02:43:17.847Z,9.67
2018-06-27T02:45:46.302Z,10.27
2018-06-27T02:48:14.388Z,9.93
2018-06-27T02:50:42.801Z,10.90
2018-06-27T02:53:10.909Z,9.27
2018-06-27T02:55:39.345Z,10.47
2018-06-27T02:58:07.758Z,9.70
2018-06-27T03:00:36.184Z,9.70
2018-06-27T03:03:04.736Z,11.20
2018-06-27T03:05:33.166Z,10.40
2018-06-27T03:08:01.285Z,10.00
2018-06-27T03:10:29.732Z,9.20
2018-06-27T03:12:58.227Z,9.87
2018-06-27T03:15:26.687Z,9.87
2018-06-27T03:17:55.122Z,10.63
2018-06-27T03:20:23.332Z,10.03
2018-06-27T03:22:51.442Z,9.13
2018-06-27T03:25:20.094Z,10.30
2018-06-27T03:27:48.573Z,11.10
2018-06-27T03:30:17.012Z,11.60
2018-06-27T03:32:45.411Z,12.77
2018-06-27T03:35:13.622Z,10.53
2018-06-27T03:37:42.042Z,11.20
2018-06-27T03:40:10.446Z,10.63
2018-06-27T03:42:38.574Z,11.90
2018-06-27T03:45:06.722Z,11.77
2018-06-27T03:47:34.940Z,12.27
2018-06-27T03:50:03.478Z,12.30
2018-06-27T03:52:32.054Z,11.40
2018-06-27T03:55:00.194Z,12.13
2018-06-27T03:57:28.784Z,12.43
2018-06-27T03:59:57.473Z,11.60
2018-06-27T04:02:26.183Z,10.53
2018-06-27T04:04:54.607Z,11.67
2018-06-27T04:07:23.025Z,10.57
2018-06-27T04:09:51.443Z,11.47
2018-06-27T04:12:19.946Z,9.83
2018-06-27T04:14:48.130Z,11.00
2018-06-27T04:17:16.578Z,9.97
2018-06-27T04:19:45.056Z,11.73
2018-06-27T04:22:13.434Z,11.40
2018-06-27T04:24:41.865Z,12.37
2018-06-27T04:27:10.293Z,11.73
2018-06-27T04:29:38.460Z,11.00
2018-06-27T04:32:06.882Z,11.20
2018-06-27T04:34:35.309Z,11.33
2018-06-27T04:37:03.747Z,11.67
2018-06-27T04:39:32.201Z,11.70
2018-06-27T04:42:00.615Z,11.60
2018-06-27T04:44:28.718Z,11.70
2018-06-27T04:46:56.827Z,12.33
2018-06-27T04:49:25.255Z,11.17
2018-06-27T04:51:53.640Z,10.80
2018-06-27T04:54:22.048Z,12.30
2018-06-27T04:56:50.202Z,11.97
2018-06-27T04:59:18.391Z,13.07
2018-06-27T05:01:46.828Z,13.40
2018-06-27T05:04:15.255Z,13.63
2018-06-27T05:06:43.689Z,17.40
2018-06-27T05:09:12.274Z,16.40
2018-06-27T05:11:40.540Z,15.47
2018-06-27T05:14:08.956Z,16.10
2018-06-27T05:16:37.359Z,17.27
2018-06-27T05:19:05.555Z,20.20
2018-06-27T05:21:33.969Z,22.00
2018-06-27T05:24:02.115Z,21.50
2018-06-27T05:26:30.526Z,20.33
2018-06-27T05:28:58.975Z,21.47
2018-06-27T05:31:27.386Z,21.77
2018-06-27T05:33:55.843Z,20.13
2018-06-27T05:36:24.278Z,20.37
2018-06-27T05:38:52.678Z,19.20
2018-06-27T05:41:20.842Z,20.40
2018-06-27T05:43:49.271Z,15.77
2018-06-27T05:46:17.799Z,18.53
2018-06-27T05:48:46.205Z,18.27
2018-06-27T05:51:14.644Z,19.03
2018-06-27T05:53:42.741Z,19.20
2018-06-27T05:56:11.167Z,15.43
2018-06-27T05:58:39.575Z,13.77
2018-06-27T06:01:07.707Z,12.90
2018-06-27T06:03:36.123Z,11.50
2018-06-27T06:06:04.663Z,12.93
2018-06-27T06:08:32.783Z,12.00
2018-06-27T06:11:01.188Z,11.80
2018-06-27T06:13:29.595Z,9.43
2018-06-27T06:15:57.740Z,11.23
2018-06-27T06:18:26.373Z,11.67
2018-06-27T06:20:54.798Z,9.80
2018-06-27T06:23:23.189Z,9.37
2018-06-27T06:25:51.616Z,9.87
2018-06-27T06:28:20.039Z,8.47
2018-06-27T06:30:48.450Z,9.60
2018-06-27T06:33:16.906Z,8.40
2018-06-27T06:35:45.342Z,9.20
2018-06-27T06:38:13.781Z,9.63
2018-06-27T06:40:42.231Z,8.90
2018-06-27T06:43:10.643Z,8.53
2018-06-27T06:45:38.774Z,8.80
2018-06-27T06:48:06.887Z,9.37
2018-06-27T06:50:35.311Z,7.50
2018-06-27T06:53:03.406Z,9.10
2018-06-27T06:55:32.292Z,7.67
2018-06-27T06:58:00.704Z,6.97
2018-06-27T07:00:29.181Z,8.03
2018-06-27T07:02:57.307Z,8.33
2018-06-27T07:05:25.805Z,6.67
2018-06-27T07:07:54.204Z,6.77
2018-06-27T07:10:22.634Z,5.40
2018-06-27T07:12:51.027Z,5.93
2018-06-27T07:15:19.169Z,5.50
2018-06-27T07:17:47.350Z,6.30
2018-06-27T07:20:15.735Z,5.83
2018-06-27T07:22:44.222Z,6.00
2018-06-27T07:25:12.606Z,6.77
2018-06-27T07:27:41.056Z,6.50
2018-06-27T07:30:09.472Z,6.10
2018-06-27T07:32:37.910Z,6.70
2018-06-27T07:35:06.314Z,6.27
2018-06-27T07:37:34.716Z,6.33
2018-06-27T07:40:03.174Z,6.77
2018-06-27T07:42:31.592Z,5.90
2018-06-27T07:44:59.681Z,6.67
2018-06-27T07:47:27.789Z,6.20
2018-06-27T07:49:56.288Z,5.80
2018-06-27T07:52:24.786Z,5.23
2018-06-27T07:54:53.175Z,5.47
2018-06-27T07:57:21.589Z,5.33
2018-06-27T07:59:50.002Z,5.17
2018-06-27T08:02:18.443Z,5.53
2018-06-27T08:04:46.859Z,5.37
2018-06-27T08:07:15.419Z,4.93
2018-06-27T08:09:43.829Z,5.03
2018-06-27T08:12:12.267Z,4.23
2018-06-27T08:14:40.661Z,3.70
2018-06-27T08:17:09.104Z,3.80
2018-06-27T08:19:37.215Z,3.00
2018-06-27T08:22:05.964Z,2.80
2018-06-27T08:24:34.525Z,3.40
2018-06-27T08:27:02.977Z,2.97
2018-06-27T08:29:31.463Z,2.57
2018-06-27T08:31:59.907Z,2.80
2018-06-27T08:34:28.344Z,2.73
2018-06-27T08:36:56.778Z,3.07
2018-06-27T08:39:25.275Z,3.10
2018-06-27T08:41:53.387Z,2.63
2018-06-27T08:44:21.830Z,2.40
2018-06-27T08:46:50.233Z,2.90
2018-06-27T08:49:18.368Z,2.63
2018-06-27T08:51:46.771Z,2.50
2018-06-27T08:54:15.199Z,3.43
2018-06-27T08:56:43.625Z,2.90
2018-06-27T08:59:11.737Z,3.27
2018-06-27T09:01:39.838Z,2.73
2018-06-27T09:04:07.985Z,2.63
2018-06-27T09:06:36.415Z,2.60
2018-06-27T09:09:06.853Z,2.83
2018-06-27T09:11:34.951Z,2.63
2018-06-27T09:14:03.454Z,2.50
2018-06-27T09:16:31.897Z,3.10
2018-06-27T09:19:00.307Z,3.10
2018-06-27T09:21:28.740Z,3.00
2018-06-27T09:23:57.135Z,3.10
2018-06-27T09:26:25.559Z,3.50
2018-06-27T09:28:53.978Z,3.10
2018-06-27T09:31:22.402Z,3.37
2018-06-27T09:33:50.834Z,3.73
2018-06-27T09:36:19.307Z,3.13
2018-06-27T09:38:47.437Z,3.43
2018-06-27T09:41:15.562Z,3.97
2018-06-27T09:43:43.941Z,3.07
2018-06-27T09:46:12.421Z,3.07
2018-06-27T09:48:40.822Z,4.67
2018-06-27T09:51:09.234Z,3.00
2018-06-27T09:53:37.624Z,5.07
2018-06-27T09:56:06.102Z,3.60
2018-06-27T09:58:34.534Z,6.47
2018-06-27T10:01:03.126Z,9.00
2018-06-27T10:03:31.240Z,4.50
2018-06-27T10:05:59.741Z,4.10
2018-06-27T10:08:28.152Z,3.67
2018-06-27T10:10:56.300Z,3.93
2018-06-27T10:13:24.739Z,4.50
2018-06-27T10:15:53.161Z,5.63
2018-06-27T10:18:21.653Z,5.47
2018-06-27T10:20:49.749Z,8.60
2018-06-27T10:23:18.153Z,5.70
2018-06-27T10:25:46.563Z,5.63
2018-06-27T10:28:14.736Z,6.17
2018-06-27T10:30:43.169Z,5.70
2018-06-27T10:33:13.343Z,5.93
2018-06-27T10:35:41.757Z,3.80
2018-06-27T10:38:10.203Z,3.93
2018-06-27T10:40:38.706Z,4.17
2018-06-27T10:43:07.135Z,4.60
2018-06-27T10:45:35.657Z,3.73
2018-06-27T10:48:03.864Z,4.33
2018-06-27T10:50:32.010Z,4.57
2018-06-27T10:53:00.371Z,4.10
2018-06-27T10:55:28.471Z,3.70
2018-06-27T10:57:56.924Z,3.90
2018-06-27T11:00:25.340Z,4.50
2018-06-27T11:02:53.511Z,3.10
2018-06-27T11:05:21.987Z,3.80
2018-06-27T11:07:50.360Z,3.70
2018-06-27T11:10:18.828Z,3.50
2018-06-27T11:12:47.506Z,4.13
2018-06-27T11:15:15.995Z,4.37
2018-06-27T11:17:44.411Z,4.03
2018-06-27T11:20:12.552Z,4.20
2018-06-27T11:22:40.983Z,3.77
2018-06-27T11:25:09.468Z,4.63
2018-06-27T11:27:37.896Z,3.90
2018-06-27T11:30:06.093Z,4.47
2018-06-27T11:32:34.228Z,4.93
2018-06-27T11:35:02.696Z,4.47
2018-06-27T11:37:31.404Z,4.50
2018-06-27T11:39:59.959Z,4.23
2018-06-27T11:42:28.153Z,5.10
2018-06-27T11:44:56.580Z,14.57
2018-06-27T11:47:25.023Z,5.50
2018-06-27T11:49:53.447Z,4.30
2018-06-27T11:52:21.561Z,3.70
2018-06-27T11:54:54.359Z,7.13
2018-06-27T11:57:22.777Z,7.07
2018-06-27T11:59:51.385Z,5.90
2018-06-27T12:02:19.933Z,6.27
2018-06-27T12:04:48.371Z,9.20
2018-06-27T12:07:16.836Z,3.70
2018-06-27T12:09:44.955Z,3.67
2018-06-27T12:12:13.396Z,4.43
2018-06-27T12:14:41.659Z,5.27
2018-06-27T12:17:09.796Z,6.17
2018-06-27T12:19:37.891Z,5.13
2018-06-27T12:22:06.060Z,6.33
2018-06-27T12:24:34.568Z,6.23
2018-06-27T12:27:02.991Z,5.80
2018-06-27T12:29:31.110Z,6.70
2018-06-27T12:31:59.531Z,6.20
2018-06-27T12:34:27.963Z,4.77
2018-06-27T12:36:56.421Z,3.70
2018-06-27T12:39:24.991Z,3.97
2018-06-27T12:41:53.084Z,3.83
2018-06-27T12:44:21.627Z,3.37
2018-06-27T12:46:50.101Z,3.37
2018-06-27T12:49:18.524Z,3.10
2018-06-27T12:51:46.689Z,3.57
2018-06-27T12:54:14.806Z,3.17
2018-06-27T12:56:43.280Z,2.70
2018-06-27T12:59:11.758Z,2.80
2018-06-27T13:01:40.229Z,2.53
2018-06-27T13:04:08.702Z,3.20
2018-06-27T13:06:37.297Z,3.60
2018-06-27T13:09:07.577Z,4.13
2018-06-27T13:11:36.013Z,3.43
2018-06-27T13:14:04.127Z,3.07
2018-06-27T13:16:32.759Z,4.10
2018-06-27T13:19:01.364Z,4.80
2018-06-27T13:21:29.863Z,3.17
2018-06-27T13:23:58.075Z,3.80
2018-06-27T13:26:26.648Z,3.43
2018-06-27T13:28:55.202Z,3.47
2018-06-27T13:31:23.935Z,3.23
2018-06-27T13:33:52.387Z,3.20
2018-06-27T13:36:20.547Z,3.10
2018-06-27T13:38:49.000Z,3.20
2018-06-27T13:41:17.132Z,3.00
2018-06-27T13:43:45.370Z,3.17
2018-06-27T13:46:13.649Z,2.33
2018-06-27T13:48:42.148Z,2.73
2018-06-27T13:51:10.661Z,2.80
2018-06-27T13:53:39.156Z,3.20
2018-06-27T13:56:07.585Z,2.40
2018-06-27T13:58:36.316Z,2.80
2018-06-27T14:01:04.782Z,2.40
2018-06-27T14:03:33.249Z,2.50
2018-06-27T14:06:01.679Z,2.90
2018-06-27T14:08:30.142Z,2.20
2018-06-27T14:10:58.265Z,2.40
2018-06-27T14:13:26.411Z,2.87
2018-06-27T14:15:54.605Z,1.60
2018-06-27T14:18:23.169Z,2.60
2018-06-27T14:20:51.567Z,2.13
2018-06-27T14:23:20.400Z,1.90
2018-06-27T14:25:49.029Z,1.80
2018-06-27T14:28:17.488Z,2.47
2018-06-27T14:30:45.931Z,2.10
2018-06-27T14:33:14.536Z,1.73
2018-06-27T14:35:42.833Z,1.90
2018-06-27T14:38:11.299Z,2.97
2018-06-27T14:40:39.915Z,2.20
2018-06-27T14:43:08.374Z,1.90
2018-06-27T14:45:36.864Z,1.70
2018-06-27T14:48:05.408Z,2.10
2018-06-27T14:50:33.862Z,2.20
2018-06-27T14:53:01.994Z,2.17
2018-06-27T14:55:30.515Z,2.53
2018-06-27T14:57:59.329Z,2.10
2018-06-27T15:00:27.802Z,2.30
2018-06-27T15:02:56.277Z,2.20
2018-06-27T15:05:24.816Z,2.30
2018-06-27T15:07:53.270Z,2.10
2018-06-27T15:10:21.741Z,2.30
2018-06-27T15:12:50.146Z,2.47
2018-06-27T15:15:18.681Z,3.20
2018-06-27T15:17:46.973Z,2.00
2018-06-27T15:20:15.113Z,2.47
2018-06-27T15:22:43.616Z,2.60
2018-06-27T15:25:12.169Z,2.50
2018-06-27T15:27:40.625Z,2.50
2018-06-27T15:30:08.761Z,2.83
2018-06-27T15:32:37.468Z,2.43
2018-06-27T15:35:06.393Z,2.20
2018-06-27T15:37:34.857Z,2.63
2018-06-27T15:40:03.145Z,2.70
2018-06-27T15:42:31.657Z,3.10
2018-06-27T15:44:59.775Z,2.80
2018-06-27T15:47:28.368Z,2.27
2018-06-27T15:49:57.044Z,4.00
2018-06-27T15:52:25.329Z,2.70
2018-06-27T15:54:53.811Z,2.07
2018-06-27T15:57:23.473Z,2.83
2018-06-27T15:59:53.987Z,2.90
2018-06-27T16:02:24.949Z,2.60
2018-06-27T16:04:53.723Z,2.50
2018-06-27T16:07:22.181Z,2.20
2018-06-27T16:09:51.163Z,2.30
2018-06-27T16:12:19.798Z,2.10
2018-06-27T16:14:48.152Z,2.60
2018-06-27T16:17:16.964Z,2.40
2018-06-27T16:19:44.845Z,2.37
2018-06-27T16:22:13.569Z,2.90
2018-06-27T16:24:42.447Z,2.30
2018-06-27T16:27:10.597Z,2.57
2018-06-27T16:29:38.739Z,3.10
2018-06-27T16:32:07.755Z,4.07
2018-06-27T16:34:36.248Z,3.90
2018-06-27T16:37:04.451Z,3.07
2018-06-27T16:39:32.944Z,2.73
2018-06-27T16:42:02.381Z,3.30
2018-06-27T16:44:30.903Z,2.53
2018-06-27T16:46:59.070Z,2.97
2018-06-27T16:49:27.686Z,3.00
2018-06-27T16:51:56.295Z,2.47
2018-06-27T16:54:24.727Z,2.90
2018-06-27T16:56:52.909Z,3.10
2018-06-27T16:59:21.592Z,2.77
2018-06-27T17:01:49.794Z,3.10
2018-06-27T17:04:18.398Z,2.53
2018-06-27T17:06:46.717Z,2.90
2018-06-27T17:09:15.219Z,2.53
2018-06-27T17:11:43.929Z,2.50
2018-06-27T17:14:13.417Z,2.80
2018-06-27T17:16:42.092Z,3.37
2018-06-27T17:19:10.995Z,2.60
2018-06-27T17:21:39.999Z,3.20
2018-06-27T17:24:08.768Z,2.90
2018-06-27T17:26:37.395Z,3.47
2018-06-27T17:29:06.165Z,3.17
2018-06-27T17:31:35.127Z,2.80
2018-06-27T17:34:03.747Z,2.97
2018-06-27T17:36:32.918Z,2.70
2018-06-27T17:39:01.095Z,3.00
2018-06-27T17:41:30.559Z,3.40
2018-06-27T17:43:59.666Z,3.40
2018-06-27T17:46:28.511Z,3.30
2018-06-27T17:48:57.418Z,3.20
2018-06-27T17:51:27.473Z,3.43
2018-06-27T17:53:56.338Z,2.87
2018-06-27T17:56:24.989Z,2.67
2018-06-27T17:58:56.386Z,2.93
2018-06-27T18:01:25.071Z,2.97
2018-06-27T18:03:53.611Z,3.50
2018-06-27T18:06:22.109Z,3.10
2018-06-27T18:08:50.814Z,3.80
2018-06-27T18:11:18.976Z,3.57
2018-06-27T18:13:48.412Z,2.70
2018-06-27T18:16:16.949Z,3.00
2018-06-27T18:18:47.123Z,3.37
2018-06-27T18:21:16.552Z,3.37
2018-06-27T18:23:46.540Z,3.27
2018-06-27T18:26:15.066Z,3.50
2018-06-27T18:28:43.865Z,3.70
2018-06-27T18:31:12.113Z,3.83
2018-06-27T18:33:42.412Z,4.00
2018-06-27T18:36:11.648Z,2.87
2018-06-27T18:38:40.195Z,3.77
2018-06-27T18:41:09.981Z,3.70
2018-06-27T18:43:39.565Z,3.03
2018-06-27T18:46:07.933Z,3.53
2018-06-27T18:48:41.285Z,3.10
2018-06-27T18:51:11.951Z,3.57
2018-06-27T18:53:40.565Z,3.53
2018-06-27T18:56:10.675Z,3.40
2018-06-27T18:58:40.329Z,3.40
2018-06-27T19:01:08.532Z,3.10
2018-06-27T19:03:36.809Z,3.60
2018-06-27T19:06:05.243Z,3.03
2018-06-27T19:08:34.364Z,3.07
2018-06-27T19:11:03.903Z,3.87
2018-06-27T19:13:33.002Z,4.20
2018-06-27T19:16:01.302Z,3.80
2018-06-27T19:18:30.675Z,3.70
2018-06-27T19:20:59.305Z,3.97
2018-06-27T19:23:27.559Z,3.30
2018-06-27T19:25:58.992Z,4.00
2018-06-27T19:28:27.296Z,3.17
2018-06-27T19:30:55.528Z,3.30
2018-06-27T19:33:24.418Z,3.40
2018-06-27T19:35:53.439Z,3.20
2018-06-27T19:38:25.170Z,4.10
2018-06-27T19:40:54.458Z,3.60
2018-06-27T19:43:24.732Z,3.80
2018-06-27T19:45:55.049Z,4.93
2018-06-27T19:48:25.042Z,7.47
2018-06-27T19:50:54.799Z,4.43
2018-06-27T19:53:25.484Z,4.23
2018-06-27T19:55:53.838Z,3.17
2018-06-27T19:58:22.142Z,4.23
2018-06-27T20:00:52.876Z,4.20
2018-06-27T20:03:21.165Z,3.70
2018-06-27T20:05:49.763Z,4.97
2018-06-27T20:08:18.157Z,4.07
2018-06-27T20:10:47.608Z,3.80
2018-06-27T20:13:16.151Z,4.27
2018-06-27T20:15:45.532Z,3.17
2018-06-27T20:18:14.127Z,4.00
2018-06-27T20:20:42.751Z,4.00
2018-06-27T20:23:11.873Z,4.30
2018-06-27T20:25:40.647Z,4.87
2018-06-27T20:28:10.207Z,4.70
2018-06-27T20:30:39.168Z,4.17
2018-06-27T20:33:07.715Z,5.27
2018-06-27T20:35:36.951Z,4.30
2018-06-27T20:38:11.005Z,4.27
2018-06-27T20:40:40.875Z,5.87
2018-06-27T20:43:10.197Z,5.03
2018-06-27T20:45:39.557Z,4.30
2018-06-27T20:48:08.513Z,4.80
2018-06-27T20:50:38.189Z,4.70
2018-06-27T20:53:08.591Z,4.57
2018-06-27T20:55:37.249Z,3.87
2018-06-27T20:58:05.661Z,4.67
2018-06-27T21:00:33.868Z,5.10
2018-06-27T21:03:02.025Z,4.90
2018-06-27T21:05:30.483Z,5.33
2018-06-27T21:07:59.147Z,4.53
2018-06-27T21:10:28.006Z,5.40
2018-06-27T21:12:56.809Z,4.27
2018-06-27T21:15:25.265Z,5.10
2018-06-27T21:17:53.720Z,5.60
2018-06-27T21:20:21.984Z,4.83
2018-06-27T21:22:50.363Z,4.63
2018-06-27T21:25:18.507Z,4.83
2018-06-27T21:27:46.942Z,4.50
2018-06-27T21:30:15.429Z,5.17
2018-06-27T21:32:43.547Z,4.97
2018-06-27T21:35:12.028Z,5.03
2018-06-27T21:37:40.137Z,5.27
2018-06-27T21:40:08.587Z,5.90
2018-06-27T21:42:37.021Z,5.30
2018-06-27T21:45:05.573Z,5.00
2018-06-27T21:47:34.078Z,5.33
2018-06-27T21:50:02.184Z,6.10
2018-06-27T21:52:30.651Z,5.47
2018-06-27T21:54:58.786Z,5.37
2018-06-27T21:57:27.199Z,5.90
2018-06-27T21:59:55.405Z,5.10
2018-06-27T22:02:23.948Z,5.80
2018-06-27T22:04:52.339Z,6.40
2018-06-27T22:07:20.768Z,5.53
2018-06-27T22:09:49.185Z,7.03
2018-06-27T22:12:17.694Z,5.73
2018-06-27T22:14:46.115Z,5.73
2018-06-27T22:17:14.230Z,6.40
2018-06-27T22:19:42.388Z,7.00
2018-06-27T22:22:10.789Z,6.30
2018-06-27T22:24:39.221Z,7.10
2018-06-27T22:27:07.357Z,6.80
2018-06-27T22:29:35.478Z,6.20
2018-06-27T22:32:04.045Z,6.50
2018-06-27T22:34:32.623Z,6.07
2018-06-27T22:37:01.012Z,6.07
2018-06-27T22:39:29.497Z,7.67
2018-06-27T22:41:57.924Z,6.50
2018-06-27T22:44:26.343Z,6.47
2018-06-27T22:46:54.789Z,7.67
2018-06-27T22:49:23.249Z,7.90
2018-06-27T22:51:51.651Z,9.10
2018-06-27T22:54:19.769Z,8.37
2018-06-27T22:56:47.898Z,9.10
2018-06-27T22:59:16.337Z,8.77
2018-06-27T23:01:44.765Z,8.87
2018-06-27T23:04:13.245Z,9.13
2018-06-27T23:06:41.777Z,9.20
2018-06-27T23:09:10.818Z,10.40
2018-06-27T23:11:39.295Z,10.20
2018-06-27T23:14:08.062Z,10.27
2018-06-27T23:16:36.449Z,9.60
2018-06-27T23:19:05.109Z,10.63
2018-06-27T23:21:33.218Z,10.90
2018-06-27T23:24:01.405Z,12.27
2018-06-27T23:26:29.822Z,11.63
2018-06-27T23:28:58.334Z,11.20
2018-06-27T23:31:26.460Z,12.07
2018-06-27T23:33:54.923Z,11.13
2018-06-27T23:36:23.074Z,12.87
2018-06-27T23:38:51.480Z,11.10
2018-06-27T23:41:19.906Z,12.73
2018-06-27T23:43:48.336Z,11.13
2018-06-27T23:46:16.830Z,12.30
2018-06-27T23:48:45.269Z,11.67
2018-06-27T23:51:13.378Z,13.23
2018-06-27T23:53:41.804Z,12.13
2018-06-27T23:56:09.916Z,11.83
2018-06-27T23:58:38.370Z,13.33
